Time,TemperatureF,DewpointF,PressureIn,WindDirection,WindDirectionDegrees,WindSpeedMPH,WindSpeedGustMPH,Humidity,HourlyPrecipIn,Conditions,Clouds,dailyrainin,SoftwareType,DateUTC
2013-03-25 00:00:00,32.1,21.7,29.74,NE,45,5.8,5.8,65,0.00,,,0.12,WUHU216HW,2013-03-25 04:00:00,
2013-03-25 00:01:00,32.1,21.7,29.74,NE,45,5.8,5.8,65,0.00,,,0.00,WUHU216HW,2013-03-25 04:01:00,
2013-03-25 00:06:00,31.8,21.3,29.73,North,0,0.8,5.8,65,0.00,,,0.00,WUHU216HW,2013-03-25 04:06:00,
2013-03-25 00:11:00,31.8,21.3,29.73,NE,45,3.1,7.8,65,0.00,,,0.00,WUHU216HW,2013-03-25 04:11:00,
2013-03-25 00:16:00,31.8,21.3,29.73,NNE,23,0.8,7.8,65,0.00,,,0.00,WUHU216HW,2013-03-25 04:16:00,
2013-03-25 00:21:00,31.8,21.3,29.73,NE,45,3.5,6.0,65,0.00,,,0.00,WUHU216HW,2013-03-25 04:21:00,
2013-03-25 00:26:00,31.8,21.3,29.73,North,0,8.9,8.9,65,0.00,,,0.00,WUHU216HW,2013-03-25 04:26:00,
2013-03-25 00:31:00,31.6,21.2,29.73,NE,45,7.6,8.9,65,0.00,,,0.00,WUHU216HW,2013-03-25 04:31:00,
2013-03-25 00:36:00,31.6,21.2,29.73,North,0,2.2,7.6,65,0.00,,,0.00,WUHU216HW,2013-03-25 04:36:00,
2013-03-25 00:42:00,31.6,21.2,29.73,NE,45,4.9,8.2,65,0.00,,,0.00,WUHU216HW,2013-03-25 04:42:00,
2013-03-25 00:47:00,31.6,21.2,29.73,East,90,5.1,8.2,65,0.00,,,0.00,WUHU216HW,2013-03-25 04:47:00,
2013-03-25 00:52:00,31.6,21.2,29.73,ENE,68,3.5,5.1,65,0.00,,,0.00,WUHU216HW,2013-03-25 04:52:00,
2013-03-25 00:57:00,31.6,21.2,29.72,North,0,3.5,5.3,65,0.00,,,0.00,WUHU216HW,2013-03-25 04:57:00,
2013-03-25 01:02:00,31.6,21.2,29.72,NNW,338,0.8,5.3,65,0.00,,,0.00,WUHU216HW,2013-03-25 05:02:00,
2013-03-25 01:07:00,31.2,20.8,29.73,NE,45,2.2,3.5,65,0.00,,,0.00,WUHU216HW,2013-03-25 05:07:00,
2013-03-25 01:12:00,31.4,21.0,29.72,NNW,338,5.8,5.8,65,0.00,,,0.00,WUHU216HW,2013-03-25 05:12:00,
2013-03-25 01:17:00,31.2,20.8,29.72,NNE,23,2.4,5.8,65,0.00,,,0.00,WUHU216HW,2013-03-25 05:17:00,
2013-03-25 01:22:00,31.2,21.2,29.72,NE,45,4.9,5.8,66,0.00,,,0.00,WUHU216HW,2013-03-25 05:22:00,
2013-03-25 01:28:00,31.2,21.2,29.72,North,0,4.9,4.9,66,0.00,,,0.00,WUHU216HW,2013-03-25 05:28:00,
2013-03-25 01:33:00,31.2,21.2,29.72,East,90,3.5,4.9,66,0.00,,,0.00,WUHU216HW,2013-03-25 05:33:00,
2013-03-25 01:38:00,31.2,21.2,29.72,North,0,0.8,4.9,66,0.00,,,0.00,WUHU216HW,2013-03-25 05:38:00,
2013-03-25 01:43:00,31.2,21.2,29.71,NNE,23,3.8,3.8,66,0.00,,,0.00,WUHU216HW,2013-03-25 05:43:00,
2013-03-25 01:48:00,31.2,21.2,29.72,North,0,1.3,4.0,66,0.00,,,0.00,WUHU216HW,2013-03-25 05:48:00,
2013-03-25 01:53:00,31.2,21.2,29.71,NE,45,4.4,10.0,66,0.00,,,0.00,WUHU216HW,2013-03-25 05:53:00,
2013-03-25 01:58:00,31.2,21.2,29.71,North,0,2.0,10.0,66,0.00,,,0.00,WUHU216HW,2013-03-25 05:58:00,
2013-03-25 02:03:00,31.1,21.0,29.71,NNW,338,3.8,3.8,66,0.00,,,0.00,WUHU216HW,2013-03-25 06:03:00,
2013-03-25 02:08:00,31.2,21.2,29.71,NNW,338,2.4,3.8,66,0.00,,,0.00,WUHU216HW,2013-03-25 06:08:00,
2013-03-25 02:13:00,31.2,21.2,29.71,NNW,338,2.2,3.8,66,0.00,,,0.00,WUHU216HW,2013-03-25 06:13:00,
2013-03-25 02:18:00,31.1,21.0,29.71,North,0,5.5,5.5,66,0.00,,,0.00,WUHU216HW,2013-03-25 06:18:00,
2013-03-25 02:23:00,31.1,21.0,29.71,NNW,338,4.0,6.0,66,0.00,,,0.00,WUHU216HW,2013-03-25 06:23:00,
2013-03-25 02:28:00,31.1,21.0,29.71,North,0,2.4,6.0,66,0.00,,,0.00,WUHU216HW,2013-03-25 06:28:00,
2013-03-25 02:33:00,30.9,21.2,29.71,NNW,338,15.4,15.4,67,0.00,,,0.00,WUHU216HW,2013-03-25 06:33:00,
2013-03-25 02:38:00,31.1,21.3,29.71,North,0,0.8,15.4,67,0.00,,,0.00,WUHU216HW,2013-03-25 06:38:00,
2013-03-25 02:43:00,30.9,21.2,29.70,NNW,338,0.8,15.4,67,0.00,,,0.00,WUHU216HW,2013-03-25 06:43:00,
2013-03-25 02:48:00,31.1,21.3,29.70,North,0,5.1,5.1,67,0.00,,,0.00,WUHU216HW,2013-03-25 06:48:00,
2013-03-25 02:54:00,30.9,21.2,29.70,NW,315,5.1,5.1,67,0.00,,,0.00,WUHU216HW,2013-03-25 06:54:00,
2013-03-25 02:59:00,30.9,21.2,29.70,NNW,338,5.1,5.1,67,0.00,,,0.00,WUHU216HW,2013-03-25 06:59:00,
2013-03-25 03:04:00,30.9,21.2,29.70,North,0,3.8,8.2,67,0.00,,,0.00,WUHU216HW,2013-03-25 07:04:00,
2013-03-25 03:09:00,30.9,21.2,29.69,North,0,2.4,8.2,67,0.00,,,0.00,WUHU216HW,2013-03-25 07:09:00,
2013-03-25 03:14:00,30.9,21.5,29.69,North,0,1.5,3.1,68,0.00,,,0.00,WUHU216HW,2013-03-25 07:14:00,
2013-03-25 03:19:00,30.9,21.5,29.69,North,0,3.1,8.7,68,0.00,,,0.00,WUHU216HW,2013-03-25 07:19:00,
2013-03-25 03:24:00,30.9,21.5,29.69,NE,45,2.9,8.7,68,0.00,,,0.00,WUHU216HW,2013-03-25 07:24:00,
2013-03-25 03:29:00,30.7,21.7,29.69,NNW,338,2.9,6.9,69,0.00,,,0.00,WUHU216HW,2013-03-25 07:29:00,
2013-03-25 03:34:00,30.7,21.7,29.69,ENE,68,7.1,7.1,69,0.00,,,0.00,WUHU216HW,2013-03-25 07:34:00,
2013-03-25 03:39:00,30.7,21.7,29.69,North,0,4.6,7.1,69,0.00,,,0.00,WUHU216HW,2013-03-25 07:39:00,
2013-03-25 03:44:00,30.7,21.7,29.69,ENE,68,8.2,8.2,69,0.00,,,0.00,WUHU216HW,2013-03-25 07:44:00,
2013-03-25 03:49:00,30.7,21.7,29.68,NE,45,3.8,8.2,69,0.00,,,0.00,WUHU216HW,2013-03-25 07:49:00,
2013-03-25 03:55:00,30.7,21.7,29.68,NNE,23,2.2,8.2,69,0.00,,,0.00,WUHU216HW,2013-03-25 07:55:00,
2013-03-25 04:00:00,30.7,21.7,29.68,NNW,338,6.4,6.4,69,0.00,,,0.00,WUHU216HW,2013-03-25 08:00:00,
2013-03-25 04:05:00,30.7,21.7,29.68,North,0,4.0,6.9,69,0.00,,,0.00,WUHU216HW,2013-03-25 08:05:00,
2013-03-25 04:10:00,30.7,21.7,29.68,NNE,23,2.6,6.9,69,0.00,,,0.00,WUHU216HW,2013-03-25 08:10:00,
2013-03-25 04:15:00,30.7,22.1,29.68,East,90,1.1,4.2,70,0.00,,,0.00,WUHU216HW,2013-03-25 08:15:00,
2013-03-25 04:20:00,30.9,22.2,29.68,NNE,23,4.9,4.9,70,0.00,,,0.00,WUHU216HW,2013-03-25 08:20:00,
2013-03-25 04:25:00,30.7,22.1,29.68,NNW,338,10.2,10.2,70,0.00,,,0.00,WUHU216HW,2013-03-25 08:25:00,
2013-03-25 04:30:00,30.9,22.2,29.68,ENE,68,6.2,10.2,70,0.00,,,0.00,WUHU216HW,2013-03-25 08:30:00,
2013-03-25 04:35:00,30.9,22.2,29.68,NNW,338,10.2,10.2,70,0.00,,,0.00,WUHU216HW,2013-03-25 08:35:00,
2013-03-25 04:40:00,30.9,22.2,29.67,NNE,23,2.0,10.2,70,0.00,,,0.00,WUHU216HW,2013-03-25 08:40:00,
2013-03-25 04:45:00,30.9,22.2,29.68,North,0,1.1,10.2,70,0.00,,,0.00,WUHU216HW,2013-03-25 08:45:00,
2013-03-25 04:50:00,30.9,22.6,29.67,NNW,338,3.5,8.0,71,0.00,,,0.00,WUHU216HW,2013-03-25 08:50:00,
2013-03-25 04:55:00,30.9,22.6,29.68,NNE,23,1.5,8.0,71,0.00,,,0.00,WUHU216HW,2013-03-25 08:55:00,
2013-03-25 05:00:00,30.9,22.6,29.68,NNW,338,5.1,5.1,71,0.00,,,0.00,WUHU216HW,2013-03-25 09:00:00,
2013-03-25 05:05:00,30.9,22.6,29.68,North,0,3.8,5.1,71,0.00,,,0.00,WUHU216HW,2013-03-25 09:05:00,
2013-03-25 05:11:00,30.9,22.6,29.68,North,0,8.2,9.3,71,0.00,,,0.00,WUHU216HW,2013-03-25 09:11:00,
2013-03-25 05:16:00,30.9,22.6,29.68,NE,45,3.8,9.3,71,0.00,,,0.00,WUHU216HW,2013-03-25 09:16:00,
2013-03-25 05:21:00,30.9,22.6,29.68,NNE,23,5.3,5.8,71,0.00,,,0.00,WUHU216HW,2013-03-25 09:21:00,
2013-03-25 05:26:00,31.1,22.7,29.68,ENE,68,4.9,5.8,71,0.00,,,0.00,WUHU216HW,2013-03-25 09:26:00,
2013-03-25 05:31:00,31.1,22.7,29.68,NNE,23,0.8,5.3,71,0.00,,,0.00,WUHU216HW,2013-03-25 09:31:00,
2013-03-25 05:36:00,31.1,22.7,29.68,North,0,2.4,2.4,71,0.00,,,0.00,WUHU216HW,2013-03-25 09:36:00,
2013-03-25 05:41:00,31.1,22.7,29.67,North,0,4.4,5.5,71,0.00,,,0.00,WUHU216HW,2013-03-25 09:41:00,
2013-03-25 05:46:00,31.2,22.9,29.68,East,90,3.8,5.5,71,0.00,,,0.00,WUHU216HW,2013-03-25 09:46:00,
2013-03-25 05:51:00,31.2,22.9,29.67,North,0,1.7,4.4,71,0.00,,,0.00,WUHU216HW,2013-03-25 09:51:00,
2013-03-25 05:56:00,31.2,22.9,29.68,ENE,68,3.1,7.3,71,0.00,,,0.00,WUHU216HW,2013-03-25 09:56:00,
2013-03-25 06:01:00,31.2,22.9,29.68,NNW,338,2.2,7.3,71,0.00,,,0.00,WUHU216HW,2013-03-25 10:01:00,
2013-03-25 06:06:00,31.2,22.9,29.68,North,0,4.2,5.1,71,0.00,,,0.00,WUHU216HW,2013-03-25 10:06:00,
2013-03-25 06:11:00,31.2,22.9,29.68,North,0,1.7,5.1,71,0.00,,,0.00,WUHU216HW,2013-03-25 10:11:00,
2013-03-25 06:17:00,31.4,23.1,29.67,NNW,338,1.7,6.2,71,0.00,,,0.00,WUHU216HW,2013-03-25 10:17:00,
2013-03-25 06:22:00,31.4,23.1,29.68,NNE,23,2.9,7.1,71,0.00,,,0.00,WUHU216HW,2013-03-25 10:22:00,
2013-03-25 06:27:00,31.6,23.6,29.68,NNE,23,1.5,7.1,72,0.00,,,0.00,WUHU216HW,2013-03-25 10:27:00,
2013-03-25 06:32:00,31.6,23.6,29.68,NNW,338,6.0,6.0,72,0.00,,,0.00,WUHU216HW,2013-03-25 10:32:00,
2013-03-25 06:37:00,31.6,23.6,29.68,NW,315,3.1,14.3,72,0.00,,,0.00,WUHU216HW,2013-03-25 10:37:00,
2013-03-25 06:42:00,31.6,23.6,29.68,NW,315,10.0,14.3,72,0.00,,,0.00,WUHU216HW,2013-03-25 10:42:00,
2013-03-25 06:47:00,31.6,23.6,29.68,NNE,23,4.9,10.0,72,0.00,,,0.00,WUHU216HW,2013-03-25 10:47:00,
2013-03-25 06:52:00,31.6,23.6,29.68,North,0,7.1,10.0,72,0.00,,,0.00,WUHU216HW,2013-03-25 10:52:00,
2013-03-25 06:57:00,31.6,23.6,29.68,NNW,338,0.0,8.5,72,0.00,,,0.00,WUHU216HW,2013-03-25 10:57:00,
2013-03-25 07:02:00,31.6,23.6,29.68,North,0,2.4,7.1,72,0.00,,,0.00,WUHU216HW,2013-03-25 11:02:00,
2013-03-25 07:07:00,31.6,23.6,29.68,NNE,23,6.9,6.9,72,0.00,,,0.00,WUHU216HW,2013-03-25 11:07:00,
2013-03-25 07:13:00,31.6,23.6,29.69,NNE,23,2.9,6.9,72,0.00,,,0.00,WUHU216HW,2013-03-25 11:13:00,
2013-03-25 07:18:00,31.6,23.6,29.69,NNE,23,4.6,11.8,72,0.00,,,0.00,WUHU216HW,2013-03-25 11:18:00,
2013-03-25 07:23:00,31.6,23.6,29.69,NNW,338,5.1,11.8,72,0.00,,,0.00,WUHU216HW,2013-03-25 11:23:00,
2013-03-25 07:28:00,31.6,23.9,29.70,North,0,0.0,7.3,73,0.00,,,0.00,WUHU216HW,2013-03-25 11:28:00,
2013-03-25 07:33:00,31.6,23.9,29.70,NNW,338,3.5,4.0,73,0.00,,,0.00,WUHU216HW,2013-03-25 11:33:00,
2013-03-25 07:38:00,31.6,23.9,29.70,NNW,338,6.4,6.4,73,0.00,,,0.00,WUHU216HW,2013-03-25 11:38:00,
2013-03-25 07:43:00,31.4,23.7,29.71,North,0,3.8,6.4,73,0.00,,,0.00,WUHU216HW,2013-03-25 11:43:00,
2013-03-25 07:48:00,31.2,23.6,29.71,NNW,338,7.1,7.1,73,0.00,,,0.00,WUHU216HW,2013-03-25 11:48:00,
2013-03-25 07:53:00,31.2,23.6,29.72,NNW,338,13.6,13.6,73,0.00,,,0.00,WUHU216HW,2013-03-25 11:53:00,
2013-03-25 07:58:00,31.2,23.6,29.72,NNE,23,6.7,13.6,73,0.00,,,0.00,WUHU216HW,2013-03-25 11:58:00,
2013-03-25 08:03:00,31.2,23.6,29.72,NW,315,2.2,7.1,73,0.00,,,0.00,WUHU216HW,2013-03-25 12:03:00,
2013-03-25 08:08:00,31.2,23.6,29.73,NNE,23,4.4,7.1,73,0.00,,,0.00,WUHU216HW,2013-03-25 12:08:00,
2013-03-25 08:13:00,31.2,23.6,29.73,NNW,338,4.0,4.9,73,0.00,,,0.00,WUHU216HW,2013-03-25 12:13:00,
2013-03-25 08:19:00,31.2,23.6,29.74,NNE,23,5.1,5.1,73,0.00,,,0.00,WUHU216HW,2013-03-25 12:19:00,
2013-03-25 08:24:00,31.2,23.6,29.74,NNW,338,2.0,9.8,73,0.00,,,0.00,WUHU216HW,2013-03-25 12:24:00,
2013-03-25 08:29:00,31.2,23.6,29.74,North,0,4.6,9.8,73,0.00,,,0.00,WUHU216HW,2013-03-25 12:29:00,
2013-03-25 08:34:00,31.6,23.9,29.74,NE,45,1.7,4.6,73,0.00,,,0.00,WUHU216HW,2013-03-25 12:34:00,
2013-03-25 08:39:00,31.6,23.9,29.75,NNE,23,4.0,4.6,73,0.00,,,0.00,WUHU216HW,2013-03-25 12:39:00,
2013-03-25 08:44:00,31.6,23.9,29.75,NE,45,2.0,4.6,73,0.00,,,0.00,WUHU216HW,2013-03-25 12:44:00,
2013-03-25 08:49:00,31.6,23.9,29.76,NE,45,1.7,4.9,73,0.00,,,0.00,WUHU216HW,2013-03-25 12:49:00,
2013-03-25 08:54:00,31.8,24.1,29.76,NE,45,3.3,4.9,73,0.00,,,0.00,WUHU216HW,2013-03-25 12:54:00,
2013-03-25 08:59:00,31.8,24.1,29.76,NNE,23,1.7,4.9,73,0.00,,,0.00,WUHU216HW,2013-03-25 12:59:00,
2013-03-25 09:04:00,31.8,24.1,29.77,NW,315,12.0,12.0,73,0.00,,,0.00,WUHU216HW,2013-03-25 13:04:00,
2013-03-25 09:09:00,32.0,24.3,29.77,North,0,3.1,16.3,73,0.00,,,0.00,WUHU216HW,2013-03-25 13:09:00,
2013-03-25 09:14:00,32.1,24.4,29.77,North,0,3.8,16.3,73,0.00,,,0.00,WUHU216HW,2013-03-25 13:14:00,
2013-03-25 09:19:00,32.0,24.3,29.78,NNE,23,1.3,11.6,73,0.00,,,0.00,WUHU216HW,2013-03-25 13:19:00,
2013-03-25 09:24:00,32.1,24.4,29.78,NNE,23,4.9,9.6,73,0.00,,,0.00,WUHU216HW,2013-03-25 13:24:00,
2013-03-25 09:29:00,32.1,24.4,29.78,North,0,9.6,12.5,73,0.00,,,0.00,WUHU216HW,2013-03-25 13:29:00,
2013-03-25 09:34:00,32.1,24.4,29.79,NNW,338,15.2,15.2,73,0.00,,,0.00,WUHU216HW,2013-03-25 13:34:00,
2013-03-25 09:39:00,32.1,24.4,29.78,North,0,3.8,15.2,73,0.00,,,0.00,WUHU216HW,2013-03-25 13:39:00,
2013-03-25 09:45:00,32.3,24.6,29.79,NE,45,3.8,8.5,73,0.00,,,0.00,WUHU216HW,2013-03-25 13:45:00,
2013-03-25 09:50:00,32.5,24.8,29.79,NNW,338,6.2,6.9,73,0.00,,,0.00,WUHU216HW,2013-03-25 13:50:00,
2013-03-25 09:55:00,32.7,24.9,29.79,North,0,6.0,6.2,73,0.00,,,0.00,WUHU216HW,2013-03-25 13:55:00,
2013-03-25 10:00:00,32.9,25.1,29.80,NNE,23,2.0,9.6,73,0.00,,,0.00,WUHU216HW,2013-03-25 14:00:00,
2013-03-25 10:05:00,33.2,25.1,29.80,NNW,338,9.8,9.8,72,0.00,,,0.00,WUHU216HW,2013-03-25 14:05:00,
2013-03-25 10:10:00,33.6,25.4,29.80,North,0,8.2,9.8,72,0.00,,,0.00,WUHU216HW,2013-03-25 14:10:00,
2013-03-25 10:15:00,33.6,25.4,29.80,NNW,338,4.4,57.7,72,0.00,,,0.00,WUHU216HW,2013-03-25 14:15:00,
2013-03-25 10:20:00,33.6,25.4,29.81,NE,45,4.0,57.7,72,0.00,,,0.00,WUHU216HW,2013-03-25 14:20:00,
2013-03-25 10:25:00,33.8,25.3,29.81,NNE,23,1.3,14.0,71,0.00,,,0.00,WUHU216HW,2013-03-25 14:25:00,
2013-03-25 10:30:00,33.9,25.4,29.81,NNW,338,10.9,14.0,71,0.00,,,0.00,WUHU216HW,2013-03-25 14:30:00,
2013-03-25 10:35:00,33.9,25.4,29.82,North,0,3.8,12.7,71,0.00,,,0.00,WUHU216HW,2013-03-25 14:35:00,
2013-03-25 10:40:00,34.1,25.3,29.82,NNW,338,13.1,13.1,70,0.00,,,0.00,WUHU216HW,2013-03-25 14:40:00,
2013-03-25 10:45:00,34.3,25.5,29.82,North,0,4.4,13.1,70,0.00,,,0.00,WUHU216HW,2013-03-25 14:45:00,
2013-03-25 10:50:00,34.7,25.8,29.82,NE,45,3.8,11.8,70,0.02,,,0.00,WUHU216HW,2013-03-25 14:50:00,
2013-03-25 10:55:00,35.2,26.4,29.82,NNW,338,5.8,11.6,70,0.02,,,0.02,WUHU216HW,2013-03-25 14:55:00,
2013-03-25 11:00:00,35.4,26.6,29.83,North,0,5.3,18.1,70,0.02,,,0.02,WUHU216HW,2013-03-25 15:00:00,
2013-03-25 11:05:00,35.4,26.6,29.83,NE,45,7.1,18.1,70,0.02,,,0.02,WUHU216HW,2013-03-25 15:05:00,
2013-03-25 11:10:00,35.4,26.6,29.83,NNW,338,10.5,13.6,70,0.02,,,0.02,WUHU216HW,2013-03-25 15:10:00,
2013-03-25 11:15:00,35.4,26.2,29.84,NNW,338,14.5,14.5,69,0.02,,,0.02,WUHU216HW,2013-03-25 15:15:00,
2013-03-25 11:20:00,35.2,26.0,29.85,North,0,3.1,17.6,69,0.02,,,0.02,WUHU216HW,2013-03-25 15:20:00,
2013-03-25 11:25:00,35.2,26.0,29.85,North,0,7.3,17.6,69,0.02,,,0.02,WUHU216HW,2013-03-25 15:25:00,
2013-03-25 11:31:00,35.2,26.0,29.85,NNW,338,3.8,7.3,69,0.02,,,0.02,WUHU216HW,2013-03-25 15:31:00,
2013-03-25 11:36:00,35.2,26.0,29.85,NNW,338,11.6,11.6,69,0.02,,,0.02,WUHU216HW,2013-03-25 15:36:00,
2013-03-25 11:41:00,35.2,26.0,29.85,NNE,23,4.9,11.6,69,0.02,,,0.02,WUHU216HW,2013-03-25 15:41:00,
2013-03-25 11:46:00,35.4,26.2,29.85,NNE,23,6.2,11.6,69,0.02,,,0.02,WUHU216HW,2013-03-25 15:46:00,
2013-03-25 11:51:00,35.4,26.2,29.86,NNW,338,15.2,15.2,69,0.00,,,0.02,WUHU216HW,2013-03-25 15:51:00,
2013-03-25 11:56:00,35.4,26.2,29.86,NW,315,5.1,15.2,69,0.00,,,0.02,WUHU216HW,2013-03-25 15:56:00,
2013-03-25 12:01:00,35.4,25.8,29.87,NNW,338,10.9,10.9,68,0.00,,,0.02,WUHU216HW,2013-03-25 16:01:00,
2013-03-25 12:07:00,35.4,26.2,29.86,North,0,13.4,13.4,69,0.00,,,0.02,WUHU216HW,2013-03-25 16:07:00,
2013-03-25 12:12:00,35.4,26.2,29.87,NNW,338,5.1,13.4,69,0.00,,,0.02,WUHU216HW,2013-03-25 16:12:00,
2013-03-25 12:17:00,35.2,26.0,29.87,NNW,338,19.9,19.9,69,0.00,,,0.02,WUHU216HW,2013-03-25 16:17:00,
2013-03-25 12:22:00,34.8,25.7,29.87,North,0,2.2,19.9,69,0.00,,,0.02,WUHU216HW,2013-03-25 16:22:00,
2013-03-25 12:27:00,34.8,25.7,29.87,NNE,23,3.1,7.1,69,0.00,,,0.02,WUHU216HW,2013-03-25 16:27:00,
2013-03-25 12:32:00,34.8,25.7,29.88,NNW,338,8.2,8.2,69,0.00,,,0.02,WUHU216HW,2013-03-25 16:32:00,
2013-03-25 12:37:00,35.2,26.0,29.87,NNW,338,6.9,8.2,69,0.00,,,0.02,WUHU216HW,2013-03-25 16:37:00,
2013-03-25 12:42:00,35.2,26.0,29.88,NNE,23,3.8,6.9,69,0.00,,,0.02,WUHU216HW,2013-03-25 16:42:00,
2013-03-25 12:47:00,35.4,25.8,29.88,North,0,4.6,6.9,68,0.00,,,0.02,WUHU216HW,2013-03-25 16:47:00,
2013-03-25 12:52:00,35.6,26.0,29.88,North,0,9.6,11.4,68,0.00,,,0.02,WUHU216HW,2013-03-25 16:52:00,
2013-03-25 12:58:00,35.7,25.8,29.88,ENE,68,4.6,11.4,67,0.00,,,0.02,WUHU216HW,2013-03-25 16:58:00,
2013-03-25 13:03:00,35.7,25.8,29.89,NNW,338,8.9,9.6,67,0.00,,,0.02,WUHU216HW,2013-03-25 17:03:00,
2013-03-25 13:08:00,35.7,26.5,29.89,NNE,23,8.9,14.0,69,0.00,,,0.02,WUHU216HW,2013-03-25 17:08:00,
2013-03-25 13:13:00,35.4,26.2,29.89,North,0,2.4,14.0,69,0.00,,,0.02,WUHU216HW,2013-03-25 17:13:00,
2013-03-25 13:18:00,35.4,26.2,29.89,NNW,338,14.3,14.3,69,0.00,,,0.02,WUHU216HW,2013-03-25 17:18:00,
2013-03-25 13:23:00,35.4,26.2,29.89,NNW,338,5.1,14.3,69,0.00,,,0.02,WUHU216HW,2013-03-25 17:23:00,
2013-03-25 13:28:00,35.2,26.0,29.90,NNW,338,14.9,14.9,69,0.00,,,0.02,WUHU216HW,2013-03-25 17:28:00,
2013-03-25 13:33:00,35.2,26.0,29.90,North,0,2.0,14.9,69,0.00,,,0.02,WUHU216HW,2013-03-25 17:33:00,
2013-03-25 13:38:00,35.2,26.4,29.90,NNW,338,6.7,14.9,70,0.00,,,0.02,WUHU216HW,2013-03-25 17:38:00,
2013-03-25 13:43:00,35.2,26.4,29.90,North,0,2.2,7.6,70,0.00,,,0.02,WUHU216HW,2013-03-25 17:43:00,
2013-03-25 13:48:00,35.4,26.6,29.90,North,0,2.9,13.6,70,0.00,,,0.02,WUHU216HW,2013-03-25 17:48:00,
2013-03-25 13:53:00,35.4,26.6,29.90,NNW,338,8.5,13.6,70,0.00,,,0.02,WUHU216HW,2013-03-25 17:53:00,